首页
METAR-TAF:

METAR-TAF

机场 :

紐華克自由國際機場

紐華克, 新泽西州, 美国

纬度: 40-40-57N, 经度: 074-10-10W, 海拔: 5米

当前天气观测

该预报发布于30分钟前的14:51 UTC
风速3节,风向北转东北
温度 23°C
湿度 73%
气压 1015 hPa
能見度: 16.1公里
散云层高于2200英尺
多云层高于2600英尺
阴天层高于13000英尺

METAR: KEWR 171451Z 03003KT 10SM SCT022 BKN026 OVC130 23/18 A2996 RMK AO2 SLP144 T02330183 50008 $

时间: 11:21 (15:21 UTC)

预报

该预报发布于1小时和50分钟前的13:31 UTC
预报有效从17日的 14点(UTC)到 18日的 18点(UTC)
风速7节,风向北转东北
能見度: 10公里
少量云层高于1500英尺
多云层高于2500英尺
从 17日的 1900点(UTC)
风速7节,风向南转南东
能見度: 10公里
多云层高于3500英尺
从 17日的 2100点(UTC)
风速5节,风向南转南东
能見度: 10公里
散云层高于2500英尺
多云层高于4000英尺, 积雨云.
附近有雷暴
短暂存在
从 17日的 21点(UTC)到 18日的 01点(UTC)
能見度: 8.0公里
多云层高于3000英尺
小阵雨
从 18日的 0200点(UTC)
风速3节,风向东南
能見度: 8.0公里
散云层高于1500英尺
多云层高于2500英尺
小阵雨, 轻雾
从 18日的 1400点(UTC)
风速5节,风向多变
能見度: 10公里
多云层高于2500英尺

TAF: KEWR 171331Z 1714/1818 02007KT P6SM FEW015 BKN025 FM171900 16007KT P6SM BKN035 FM172100 15005KT P6SM VCTS SCT025 BKN040CB TEMPO 1721/1801 5SM -SHRA BKN030 FM180200 13003KT 5SM -SHRA BR SCT015 BKN025 FM181400 VRB05KT P6SM BKN025

超过4000个机场的气象观测和天气预报(METAR&TAF报告)。

可查询的气象台以黄色和红色小点在地图上表示。

将鼠标移到小点上方,可查看气象台名称。

然后点击查看天气观测和预报。

如需切换地图:点击带黑十字的绿色按钮放大地图;点击带横线的绿色按钮缩小地图;或者点击绿色箭头查看邻近地区的地图。


METAR-TAF: